Time;durP1;ratioP1;P1;durP2;ratioP2;P2;SDS_P1;SDS_P2;PMS_P1;PMS_P2;Temp;Humidity;BMP_temperature;BMP_pressure;BME280_temperature;BME280_humidity;BME280_pressure;Samples;Min_cycle;Max_cycle;Signal;HPM_P1;HPM_P2
2022/10/22 00:01:49;;;;;;;10.13;3.25;;;16.50;99.90;;;;;;5102752;28;20188;-65
2022/10/22 00:04:14;;;;;;;3.00;2.60;;;16.50;99.90;;;;;;5092759;28;20185;-65
2022/10/22 00:06:41;;;;;;;6.55;2.92;;;16.40;99.90;;;;;;5098876;28;20188;-65
2022/10/22 00:09:07;;;;;;;10.00;3.47;;;16.40;99.90;;;;;;5109399;27;20200;-65
2022/10/22 00:11:32;;;;;;;7.13;4.05;;;16.30;99.90;;;;;;5097281;28;20196;-64
2022/10/22 00:13:58;;;;;;;5.32;2.95;;;16.30;99.90;;;;;;5106712;28;20208;-64
2022/10/22 00:16:24;;;;;;;9.35;3.38;;;16.30;99.90;;;;;;5105875;28;20212;-64
2022/10/22 00:18:49;;;;;;;3.38;2.70;;;16.30;99.90;;;;;;5093277;28;20325;-64
2022/10/22 00:21:15;;;;;;;6.38;3.10;;;16.30;99.90;;;;;;5094598;27;20183;-65
2022/10/22 00:23:42;;;;;;;5.78;2.35;;;16.40;99.90;;;;;;5101693;28;20686;-64
2022/10/22 00:26:08;;;;;;;6.15;2.55;;;16.30;99.90;;;;;;5098831;28;20175;-64
2022/10/22 00:28:33;;;;;;;4.97;2.95;;;16.30;99.90;;;;;;5107057;28;20671;-65
2022/10/22 00:31:00;;;;;;;3.83;2.83;;;16.30;99.90;;;;;;5098486;28;20257;-64
2022/10/22 00:33:27;;;;;;;8.05;3.65;;;16.30;99.90;;;;;;5098050;28;20176;-64
2022/10/22 00:35:52;;;;;;;4.80;3.17;;;16.30;99.90;;;;;;5094164;28;20230;-64
2022/10/22 00:38:19;;;;;;;6.75;3.38;;;16.30;99.90;;;;;;5098572;28;20228;-64
2022/10/22 00:40:45;;;;;;;8.40;3.00;;;16.30;99.90;;;;;;5095718;28;20213;-64
2022/10/22 00:43:12;;;;;;;9.40;3.25;;;16.30;99.90;;;;;;5103975;28;20271;-64
2022/10/22 00:45:38;;;;;;;7.30;2.78;;;16.40;99.90;;;;;;5102410;28;20681;-65
2022/10/22 00:48:19;;;;;;;4.78;2.90;;;16.40;99.90;;;;;;5092403;28;20233;-65
2022/10/22 00:50:54;;;;;;;5.47;2.60;;;16.30;99.90;;;;;;5093218;28;20577;-64
2022/10/22 00:53:32;;;;;;;4.75;2.45;;;16.30;99.90;;;;;;5097803;28;20176;-65
2022/10/22 00:55:58;;;;;;;5.40;3.22;;;16.30;99.90;;;;;;5100321;28;20168;-65
2022/10/22 00:58:26;;;;;;;7.63;2.80;;;16.30;99.90;;;;;;5107844;28;20270;-65
2022/10/22 01:00:53;;;;;;;5.72;2.88;;;16.30;99.90;;;;;;5092899;28;20168;-65
2022/10/22 01:03:19;;;;;;;5.65;2.88;;;16.30;99.90;;;;;;5093601;28;20629;-65
2022/10/22 01:06:05;;;;;;;2.47;2.28;;;16.30;99.90;;;;;;5099079;28;20250;-64
2022/10/22 01:08:55;;;;;;;9.32;2.95;;;16.30;99.90;;;;;;5098132;28;20279;-64
2022/10/22 01:11:29;;;;;;;12.02;3.08;;;16.30;99.90;;;;;;5092826;28;20531;-65
2022/10/22 01:14:29;;;;;;;9.32;2.95;;;16.20;99.90;;;;;;5092675;28;20215;-65
2022/10/22 01:17:22;;;;;;;3.78;2.58;;;16.30;99.90;;;;;;5093063;28;20208;-65
2022/10/22 01:19:48;;;;;;;9.13;3.63;;;16.30;99.90;;;;;;5093993;28;20650;-65
2022/10/22 01:22:24;;;;;;;4.95;3.28;;;16.30;99.90;;;;;;5106232;28;20185;-65
2022/10/22 01:24:55;;;;;;;4.50;3.00;;;16.30;99.90;;;;;;5097867;28;20575;-64
2022/10/22 01:27:53;;;;;;;5.30;2.42;;;16.30;99.90;;;;;;5102533;28;20256;-65
2022/10/22 01:30:19;;;;;;;3.70;2.70;;;16.30;99.90;;;;;;5094439;28;20576;-65
2022/10/22 01:32:55;;;;;;;5.45;2.78;;;16.30;99.90;;;;;;5096050;28;20317;-65
2022/10/22 01:35:28;;;;;;;6.47;2.60;;;16.30;99.90;;;;;;5092427;28;20490;-64
2022/10/22 01:37:58;;;;;;;4.70;2.28;;;16.30;99.90;;;;;;5102225;28;20196;-65
2022/10/22 01:40:25;;;;;;;5.75;4.25;;;16.40;99.90;;;;;;5095617;28;20176;-64
2022/10/22 01:43:10;;;;;;;5.07;4.38;;;16.20;99.90;;;;;;5097296;28;20229;-65
2022/10/22 01:45:43;;;;;;;10.13;3.10;;;16.30;99.90;;;;;;5099316;28;20179;-65
2022/10/22 01:48:17;;;;;;;5.13;2.03;;;16.30;99.90;;;;;;5101409;28;20187;-64
2022/10/22 01:50:43;;;;;;;7.53;2.80;;;16.30;99.90;;;;;;5101209;28;20281;-65
2022/10/22 01:53:29;;;;;;;4.30;2.65;;;16.30;99.90;;;;;;5116683;28;20258;-64
2022/10/22 01:56:11;;;;;;;6.30;2.55;;;16.30;99.90;;;;;;5117315;27;20172;-65
2022/10/22 01:58:52;;;;;;;3.50;2.17;;;16.30;99.90;;;;;;5110868;28;20195;-65
2022/10/22 02:01:40;;;;;;;3.63;3.33;;;16.40;99.90;;;;;;5106907;28;20188;-65
2022/10/22 02:04:29;;;;;;;5.68;2.70;;;16.30;99.90;;;;;;5095248;28;20172;-65
2022/10/22 02:07:00;;;;;;;7.30;3.03;;;16.40;99.90;;;;;;5104130;28;20183;-64
2022/10/22 02:09:28;;;;;;;6.82;2.75;;;16.40;99.90;;;;;;5110023;28;20686;-65
2022/10/22 02:11:55;;;;;;;5.38;2.42;;;16.30;99.90;;;;;;5096002;28;20274;-65
2022/10/22 02:14:23;;;;;;;2.65;2.00;;;16.30;99.90;;;;;;5096047;28;20242;-65
2022/10/22 02:16:49;;;;;;;4.97;2.78;;;16.30;99.90;;;;;;5098328;27;20209;-65
2022/10/22 02:19:28;;;;;;;3.13;1.98;;;16.30;99.90;;;;;;5105092;27;20186;-64
2022/10/22 02:21:54;;;;;;;7.63;2.35;;;16.20;99.90;;;;;;5096522;28;20668;-65
2022/10/22 02:24:21;;;;;;;5.47;2.35;;;16.10;99.90;;;;;;5105303;27;20204;-65
2022/10/22 02:26:58;;;;;;;4.03;2.38;;;16.20;99.90;;;;;;5100981;28;20188;-64
2022/10/22 02:29:31;;;;;;;4.60;2.50;;;16.30;99.90;;;;;;5097067;28;20588;-64
2022/10/22 02:32:00;;;;;;;5.43;2.80;;;16.30;99.90;;;;;;5104808;28;20180;-65
2022/10/22 02:34:29;;;;;;;2.45;2.15;;;16.30;99.90;;;;;;5097199;28;20540;-65
2022/10/22 02:36:56;;;;;;;7.95;2.25;;;16.30;99.90;;;;;;5103960;27;20299;-65
2022/10/22 02:39:23;;;;;;;3.83;2.40;;;16.20;99.90;;;;;;5098348;28;20255;-65
2022/10/22 02:41:48;;;;;;;3.60;2.45;;;16.20;99.90;;;;;;5097105;28;20184;-65
2022/10/22 02:44:14;;;;;;;4.53;1.85;;;16.20;99.90;;;;;;5105513;28;20184;-65
2022/10/22 02:46:41;;;;;;;3.58;2.53;;;16.10;99.90;;;;;;5109447;28;20645;-65
2022/10/22 02:49:07;;;;;;;2.38;1.88;;;16.10;99.90;;;;;;5102756;28;20313;-65
2022/10/22 02:51:33;;;;;;;8.18;2.97;;;16.10;99.90;;;;;;5098573;28;20220;-65
2022/10/22 02:53:58;;;;;;;3.88;2.13;;;16.10;99.90;;;;;;5105500;28;20179;-65
2022/10/22 02:56:24;;;;;;;7.68;2.08;;;16.10;99.90;;;;;;5110884;28;20223;-65
2022/10/22 02:58:50;;;;;;;2.35;2.15;;;16.00;99.90;;;;;;5094633;28;20211;-65
2022/10/22 03:01:15;;;;;;;9.48;2.42;;;16.00;99.90;;;;;;5107066;28;20266;-65
2022/10/22 03:03:41;;;;;;;7.25;2.17;;;16.00;99.90;;;;;;5112066;28;20271;-66
2022/10/22 03:06:07;;;;;;;2.90;2.50;;;16.00;99.90;;;;;;5103797;28;20196;-66
2022/10/22 03:08:32;;;;;;;6.03;2.22;;;16.10;99.90;;;;;;5097444;28;20181;-65
2022/10/22 03:10:58;;;;;;;4.97;1.92;;;16.10;99.90;;;;;;5106453;28;20201;-65
2022/10/22 03:13:24;;;;;;;7.15;2.05;;;16.00;99.90;;;;;;5101013;28;20188;-65
2022/10/22 03:15:50;;;;;;;3.60;2.28;;;16.10;99.90;;;;;;5097020;28;20737;-65
2022/10/22 03:18:16;;;;;;;5.43;2.53;;;16.10;99.90;;;;;;5107651;28;20204;-65
2022/10/22 03:20:42;;;;;;;4.75;2.20;;;16.10;99.90;;;;;;5096025;28;20181;-65
2022/10/22 03:23:09;;;;;;;5.07;1.95;;;16.20;99.90;;;;;;5094936;28;20189;-65
2022/10/22 03:25:35;;;;;;;11.00;2.78;;;16.20;99.90;;;;;;5094619;28;20185;-65
2022/10/22 03:28:05;;;;;;;7.50;1.90;;;16.10;99.90;;;;;;5094711;28;20234;-65
2022/10/22 03:30:31;;;;;;;6.28;1.77;;;16.10;99.90;;;;;;5103224;28;20684;-65
2022/10/22 03:32:57;;;;;;;3.10;1.40;;;16.10;99.90;;;;;;5101324;28;20180;-64
2022/10/22 03:35:23;;;;;;;1.80;1.70;;;16.20;99.90;;;;;;5113359;28;20312;-65
2022/10/22 03:37:49;;;;;;;10.65;2.00;;;16.20;99.90;;;;;;5096434;28;20681;-65
2022/10/22 03:40:15;;;;;;;9.98;2.20;;;16.30;99.90;;;;;;5094709;28;20188;-65
2022/10/22 03:42:41;;;;;;;9.13;2.95;;;16.20;99.90;;;;;;5095813;28;20724;-65
2022/10/22 03:45:08;;;;;;;8.15;1.55;;;16.20;99.90;;;;;;5106483;28;20628;-65
2022/10/22 03:47:35;;;;;;;5.80;1.80;;;16.30;99.90;;;;;;5119188;27;20280;-65
2022/10/22 03:50:01;;;;;;;2.38;1.67;;;16.20;99.90;;;;;;5099713;28;20184;-65
2022/10/22 03:52:27;;;;;;;3.03;1.48;;;16.30;99.90;;;;;;5113563;28;20761;-65
2022/10/22 03:54:52;;;;;;;2.60;1.58;;;16.30;99.90;;;;;;5103582;28;20184;-65
2022/10/22 03:57:18;;;;;;;5.78;2.42;;;16.40;99.90;;;;;;5093011;28;20212;-64
2022/10/22 03:59:45;;;;;;;5.68;2.70;;;16.40;99.90;;;;;;5089475;28;20207;-65
2022/10/22 04:02:12;;;;;;;7.72;1.67;;;16.30;99.90;;;;;;5101840;28;20240;-65
2022/10/22 04:04:38;;;;;;;3.10;1.73;;;16.30;99.90;;;;;;5092905;28;20185;-65
2022/10/22 04:07:05;;;;;;;2.95;1.60;;;16.30;99.90;;;;;;5110280;27;20325;-64
2022/10/22 04:09:32;;;;;;;2.10;1.20;;;16.20;99.90;;;;;;5092881;28;20184;-63
2022/10/22 04:11:58;;;;;;;1.52;1.27;;;16.10;99.90;;;;;;5092606;28;20280;-63
2022/10/22 04:14:24;;;;;;;3.50;1.40;;;16.10;99.90;;;;;;5084403;28;20275;-64
2022/10/22 04:16:49;;;;;;;7.00;1.55;;;16.00;99.90;;;;;;5093332;28;20220;-64
2022/10/22 04:19:15;;;;;;;7.68;2.25;;;16.10;99.90;;;;;;5095157;28;20189;-64
2022/10/22 04:21:41;;;;;;;1.50;1.40;;;16.00;99.90;;;;;;5113837;27;20268;-64
2022/10/22 04:24:07;;;;;;;4.72;2.15;;;16.10;99.90;;;;;;5112724;28;20559;-64
2022/10/22 04:26:32;;;;;;;4.20;1.30;;;16.10;99.90;;;;;;5105241;28;20521;-64
2022/10/22 04:28:58;;;;;;;2.88;1.60;;;16.00;99.90;;;;;;5125797;27;20185;-65
2022/10/22 04:31:25;;;;;;;4.20;1.55;;;16.10;99.90;;;;;;5112853;28;20723;-65
2022/10/22 04:33:55;;;;;;;5.47;1.70;;;16.00;99.90;;;;;;5108177;28;20181;-65
2022/10/22 04:36:22;;;;;;;2.33;1.50;;;16.00;99.90;;;;;;5098320;28;20199;-65
2022/10/22 04:38:52;;;;;;;4.95;1.60;;;16.10;99.90;;;;;;5092330;28;20192;-65
2022/10/22 04:41:21;;;;;;;5.63;1.70;;;16.00;99.90;;;;;;5094161;28;20521;-65
2022/10/22 04:43:47;;;;;;;3.70;1.48;;;15.90;99.90;;;;;;5099497;28;20175;-65
2022/10/22 04:46:14;;;;;;;2.95;1.80;;;15.90;99.90;;;;;;5105710;28;20184;-65
2022/10/22 04:48:41;;;;;;;4.57;2.45;;;16.00;99.90;;;;;;5099302;28;20660;-65
2022/10/22 04:51:10;;;;;;;6.95;1.75;;;15.90;99.90;;;;;;5094596;28;20194;-65
2022/10/22 04:53:36;;;;;;;1.92;1.58;;;15.80;99.90;;;;;;5111248;28;20187;-65
2022/10/22 04:56:08;;;;;;;4.03;1.98;;;15.60;99.90;;;;;;5098365;28;20280;-65
2022/10/22 04:58:34;;;;;;;2.53;1.70;;;15.80;99.90;;;;;;5098907;28;20232;-63
2022/10/22 05:00:59;;;;;;;4.72;1.75;;;15.80;99.90;;;;;;5091882;28;20208;-65
2022/10/22 05:03:25;;;;;;;5.03;1.80;;;15.60;99.90;;;;;;5099226;28;20644;-64
2022/10/22 05:05:51;;;;;;;2.60;1.25;;;15.50;99.90;;;;;;5092336;28;20177;-64
2022/10/22 05:08:16;;;;;;;3.38;1.33;;;15.50;99.90;;;;;;5093650;28;20214;-65
2022/10/22 05:10:42;;;;;;;2.97;1.52;;;15.50;99.90;;;;;;5093445;28;20260;-65
2022/10/22 05:13:08;;;;;;;3.83;1.80;;;15.50;99.90;;;;;;5093028;28;20234;-65
2022/10/22 05:15:33;;;;;;;3.20;2.35;;;15.60;99.90;;;;;;5092594;28;20216;-64
2022/10/22 05:17:59;;;;;;;6.88;1.88;;;15.80;99.90;;;;;;5104080;28;20208;-65
2022/10/22 05:20:25;;;;;;;8.85;1.90;;;15.80;99.90;;;;;;5103068;28;20189;-65
2022/10/22 05:22:50;;;;;;;2.78;1.40;;;15.90;99.90;;;;;;5096931;28;20229;-64
2022/10/22 05:25:16;;;;;;;2.15;1.40;;;16.00;99.90;;;;;;5102612;28;20208;-64
2022/10/22 05:27:41;;;;;;;2.33;1.40;;;16.10;99.90;;;;;;5100013;28;20538;-65
2022/10/22 05:30:07;;;;;;;3.58;1.50;;;16.10;99.90;;;;;;5094294;28;20189;-64
2022/10/22 05:32:34;;;;;;;4.93;1.33;;;16.10;99.90;;;;;;5092898;28;20179;-66
2022/10/22 05:35:00;;;;;;;2.78;1.88;;;16.10;99.90;;;;;;5092743;28;20180;-65
2022/10/22 05:37:25;;;;;;;1.90;1.20;;;16.20;99.90;;;;;;5123939;28;20234;-66
2022/10/22 05:39:51;;;;;;;3.88;0.88;;;16.10;99.90;;;;;;5092414;28;20637;-66
2022/10/22 05:42:17;;;;;;;9.00;1.95;;;16.20;99.90;;;;;;5108524;27;20198;-64
2022/10/22 05:44:42;;;;;;;3.00;1.50;;;16.30;99.90;;;;;;5092731;28;20264;-65
2022/10/22 05:47:08;;;;;;;10.30;1.50;;;16.30;99.90;;;;;;5096292;28;20195;-65
2022/10/22 05:49:34;;;;;;;1.73;1.40;;;16.40;99.90;;;;;;5098171;28;20195;-64
2022/10/22 05:52:00;;;;;;;1.88;1.00;;;16.60;99.90;;;;;;5103293;28;20479;-65
2022/10/22 05:54:26;;;;;;;4.90;1.30;;;16.50;99.90;;;;;;5105518;28;20188;-65
2022/10/22 05:56:51;;;;;;;5.65;1.95;;;16.40;99.90;;;;;;5096845;28;20254;-65
2022/10/22 05:59:17;;;;;;;3.97;1.42;;;16.40;99.90;;;;;;5104245;28;20184;-65
2022/10/22 06:01:43;;;;;;;2.08;1.30;;;16.40;99.90;;;;;;5091273;28;20249;-65
2022/10/22 06:04:11;;;;;;;3.17;1.23;;;16.40;99.90;;;;;;5092845;28;20552;-65
2022/10/22 06:06:42;;;;;;;2.97;1.23;;;16.30;99.90;;;;;;5092356;28;20199;-65
2022/10/22 06:09:30;;;;;;;2.85;1.58;;;16.20;99.90;;;;;;5092278;28;20180;-65
2022/10/22 06:11:57;;;;;;;1.55;1.00;;;16.20;99.90;;;;;;5092477;28;20188;-64
2022/10/22 06:14:24;;;;;;;4.72;1.65;;;16.20;99.90;;;;;;5099210;28;20264;-63
2022/10/22 06:16:50;;;;;;;3.35;1.40;;;16.20;99.90;;;;;;5096190;28;20248;-64
2022/10/22 06:19:18;;;;;;;1.20;1.15;;;16.30;99.90;;;;;;5092061;28;20188;-65
2022/10/22 06:21:45;;;;;;;11.07;2.25;;;16.20;99.90;;;;;;5095242;28;20192;-65
2022/10/22 06:24:11;;;;;;;4.78;1.40;;;16.20;99.90;;;;;;5095095;28;20180;-66
2022/10/22 06:26:37;;;;;;;3.90;1.52;;;16.20;99.90;;;;;;5102037;28;20559;-65
2022/10/22 06:29:03;;;;;;;3.10;1.50;;;16.30;99.90;;;;;;5097224;28;20549;-66
2022/10/22 06:31:35;;;;;;;4.15;1.40;;;16.20;99.90;;;;;;5096027;28;20238;-66
2022/10/22 06:34:05;;;;;;;5.85;1.70;;;16.20;99.90;;;;;;5097574;28;20646;-65
2022/10/22 06:36:31;;;;;;;4.40;1.98;;;16.20;99.90;;;;;;5101197;28;20243;-65
2022/10/22 06:38:56;;;;;;;5.80;1.55;;;16.20;99.90;;;;;;5099476;28;20471;-65
2022/10/22 06:41:23;;;;;;;5.38;1.58;;;16.20;99.90;;;;;;5105877;28;20180;-66
2022/10/22 06:43:49;;;;;;;2.83;1.67;;;16.20;99.90;;;;;;5099736;28;20189;-64
2022/10/22 06:46:20;;;;;;;6.07;1.98;;;16.20;99.90;;;;;;5098620;28;20279;-67
2022/10/22 06:48:50;;;;;;;3.70;1.20;;;16.10;99.90;;;;;;5109052;28;20268;-67
2022/10/22 06:51:17;;;;;;;6.40;2.20;;;16.20;99.90;;;;;;5109105;28;20193;-67
2022/10/22 06:53:43;;;;;;;1.92;1.50;;;16.20;99.90;;;;;;5105732;28;20180;-66
2022/10/22 06:56:11;;;;;;;7.63;2.10;;;16.10;99.90;;;;;;5103022;28;20199;-67
2022/10/22 06:58:37;;;;;;;7.45;1.95;;;16.30;99.90;;;;;;5109267;28;20279;-67
2022/10/22 07:01:05;;;;;;;7.82;1.40;;;16.30;99.90;;;;;;5095749;28;20713;-69
2022/10/22 07:03:31;;;;;;;2.60;1.05;;;16.30;99.90;;;;;;5094964;28;20185;-66
2022/10/22 07:06:01;;;;;;;4.60;1.50;;;16.20;99.90;;;;;;5095234;28;20185;-66
2022/10/22 07:08:27;;;;;;;2.30;1.27;;;16.20;99.90;;;;;;5099247;28;20189;-66
2022/10/22 07:10:53;;;;;;;2.95;1.42;;;16.20;99.90;;;;;;5094772;28;20567;-65
2022/10/22 07:13:18;;;;;;;5.70;2.58;;;16.30;99.90;;;;;;5110879;27;20283;-66
2022/10/22 07:15:44;;;;;;;5.35;1.10;;;16.30;99.90;;;;;;5105334;27;20184;-67
2022/10/22 07:18:10;;;;;;;2.20;1.90;;;16.40;99.90;;;;;;5094402;28;20299;-69
2022/10/22 07:20:35;;;;;;;2.50;1.08;;;16.50;99.90;;;;;;5093964;28;20223;-66
2022/10/22 07:23:01;;;;;;;4.07;1.10;;;16.70;99.90;;;;;;5094797;28;20212;-70
2022/10/22 07:25:27;;;;;;;2.03;1.60;;;16.80;99.90;;;;;;5093790;28;20249;-68
2022/10/22 07:27:52;;;;;;;1.60;1.15;;;16.80;99.90;;;;;;5096067;28;20705;-64
2022/10/22 07:30:18;;;;;;;1.73;1.52;;;16.90;99.90;;;;;;5096466;28;20779;-66
2022/10/22 07:32:43;;;;;;;3.13;2.10;;;16.90;99.90;;;;;;5094817;28;20754;-65
2022/10/22 07:35:09;;;;;;;4.05;1.95;;;17.10;99.90;;;;;;5097281;28;20192;-66
2022/10/22 07:37:35;;;;;;;3.17;1.63;;;17.70;99.90;;;;;;5094313;28;20290;-66
2022/10/22 07:40:01;;;;;;;3.15;1.00;;;18.50;99.90;;;;;;5094793;28;20189;-65
2022/10/22 07:42:26;;;;;;;1.73;0.90;;;19.40;99.90;;;;;;5094496;28;20220;-66
2022/10/22 07:44:52;;;;;;;1.13;0.95;;;19.90;99.90;;;;;;5093734;28;20185;-65
2022/10/22 07:47:17;;;;;;;3.95;1.42;;;19.70;99.90;;;;;;5094214;28;20184;-66
2022/10/22 07:49:43;;;;;;;1.45;0.90;;;19.40;99.90;;;;;;5092979;28;20192;-65
2022/10/22 07:52:09;;;;;;;1.83;1.65;;;19.00;99.90;;;;;;5104435;28;20291;-65
2022/10/22 07:54:34;;;;;;;3.88;1.40;;;18.70;99.90;;;;;;5098628;28;20185;-67
2022/10/22 07:57:00;;;;;;;3.78;1.45;;;18.50;99.90;;;;;;5103906;27;20218;-65
2022/10/22 07:59:26;;;;;;;3.05;1.27;;;18.10;99.90;;;;;;5094282;28;20189;-67
2022/10/22 08:01:51;;;;;;;2.83;1.38;;;18.00;99.90;;;;;;5094129;28;20233;-67
2022/10/22 08:04:17;;;;;;;6.85;1.40;;;17.90;99.90;;;;;;5087900;28;20192;-66
2022/10/22 08:06:43;;;;;;;4.47;1.20;;;18.00;99.90;;;;;;5092804;28;20192;-64
2022/10/22 08:09:08;;;;;;;3.90;1.27;;;18.00;99.90;;;;;;5099633;28;20180;-66
2022/10/22 08:11:34;;;;;;;4.45;1.63;;;18.00;99.90;;;;;;5093803;28;20203;-66
2022/10/22 08:14:00;;;;;;;5.90;1.20;;;18.00;99.90;;;;;;5110158;27;20187;-67
2022/10/22 08:16:25;;;;;;;1.25;1.13;;;18.10;99.90;;;;;;5096311;28;20185;-66
2022/10/22 08:18:51;;;;;;;4.65;1.20;;;18.00;99.90;;;;;;5098885;28;20184;-72
2022/10/22 08:21:17;;;;;;;2.40;1.50;;;18.10;99.90;;;;;;5104388;28;20188;-68
2022/10/22 08:23:42;;;;;;;6.00;1.33;;;18.10;99.90;;;;;;5092338;28;20192;-70
2022/10/22 08:26:09;;;;;;;3.78;1.33;;;18.00;99.90;;;;;;5102623;27;20564;-68
2022/10/22 08:28:36;;;;;;;2.08;1.27;;;18.00;99.90;;;;;;5098224;28;20688;-70
2022/10/22 08:31:06;;;;;;;2.88;2.00;;;18.00;99.90;;;;;;5095166;28;20259;-68
2022/10/22 08:33:32;;;;;;;4.60;1.10;;;18.10;99.90;;;;;;5103823;27;20180;-67
2022/10/22 08:35:58;;;;;;;9.77;1.80;;;18.20;99.90;;;;;;5094612;28;20290;-67
2022/10/22 08:38:24;;;;;;;3.78;1.58;;;18.30;99.90;;;;;;5099529;28;20708;-66
2022/10/22 08:41:00;;;;;;;4.28;1.60;;;18.40;99.90;;;;;;5094680;28;20208;-67
2022/10/22 08:43:40;;;;;;;3.50;1.13;;;18.50;99.90;;;;;;5092948;28;20271;-66
2022/10/22 08:46:15;;;;;;;2.35;1.33;;;18.40;99.90;;;;;;5092977;28;20197;-68
2022/10/22 08:49:12;;;;;;;1.35;1.10;;;18.20;99.90;;;;;;5091597;28;20202;-66
2022/10/22 08:51:39;;;;;;;2.95;1.70;;;18.30;99.90;;;;;;5094299;28;20207;-67
2022/10/22 08:54:22;;;;;;;4.00;1.45;;;18.30;99.90;;;;;;5101492;28;20184;-70
2022/10/22 08:57:34;;;;;;;3.28;2.40;;;18.30;99.90;;;;;;5109431;28;20208;-66
2022/10/22 09:00:10;;;;;;;3.78;1.20;;;18.40;99.90;;;;;;5092155;28;20203;-67
2022/10/22 09:02:56;;;;;;;4.47;1.65;;;18.50;99.90;;;;;;5099805;28;20734;-67
2022/10/22 09:05:54;;;;;;;8.13;2.13;;;18.50;99.90;;;;;;5093634;28;20181;-67
2022/10/22 09:08:20;;;;;;;1.83;1.10;;;18.60;99.90;;;;;;5090758;28;20191;-67
2022/10/22 09:10:53;;;;;;;3.15;0.90;;;18.90;99.90;;;;;;5105734;28;20648;-67
2022/10/22 09:13:21;;;;;;;4.65;1.40;;;18.90;99.90;;;;;;5094006;28;20188;-67
2022/10/22 09:15:54;;;;;;;6.45;1.88;;;18.80;99.90;;;;;;5110701;28;20236;-66
2022/10/22 09:18:34;;;;;;;6.15;1.80;;;18.60;99.90;;;;;;5095332;28;20294;-67
2022/10/22 09:21:13;;;;;;;2.90;1.33;;;18.50;99.90;;;;;;5102229;28;20179;-71
2022/10/22 09:24:08;;;;;;;4.35;1.73;;;18.60;99.90;;;;;;5100027;28;20180;-68
2022/10/22 09:26:38;;;;;;;4.55;1.30;;;18.70;99.90;;;;;;5106451;28;20278;-68
2022/10/22 09:29:04;;;;;;;3.75;1.40;;;18.70;99.90;;;;;;5099898;28;20191;-68
2022/10/22 09:31:31;;;;;;;4.43;1.60;;;18.50;99.90;;;;;;5101062;28;20191;-69
2022/10/22 09:33:58;;;;;;;4.18;1.20;;;18.50;99.90;;;;;;5099112;28;20711;-68
2022/10/22 09:36:27;;;;;;;2.10;1.20;;;18.40;99.90;;;;;;5107673;28;20232;-69
2022/10/22 09:38:53;;;;;;;6.80;1.63;;;18.40;99.90;;;;;;5091324;28;20180;-69
2022/10/22 09:41:24;;;;;;;6.72;1.48;;;18.30;99.90;;;;;;5075796;28;20185;-69
2022/10/22 09:43:50;;;;;;;5.28;1.40;;;18.10;99.90;;;;;;5100449;28;20187;-66
2022/10/22 09:46:23;;;;;;;3.03;1.50;;;18.10;99.90;;;;;;5104370;28;20782;-67
2022/10/22 09:48:51;;;;;;;3.38;1.10;;;18.20;99.90;;;;;;5092516;28;20185;-66
2022/10/22 09:51:45;;;;;;;0.95;0.80;;;18.40;99.90;;;;;;5110704;28;20217;-65
2022/10/22 09:54:23;;;;;;;5.18;1.52;;;18.60;99.90;;;;;;5112402;28;20187;-65
2022/10/22 09:56:57;;;;;;;1.73;1.20;;;18.70;99.90;;;;;;5092980;28;20345;-66
2022/10/22 09:59:27;;;;;;;2.15;1.25;;;18.80;99.90;;;;;;5098999;28;20176;-67
2022/10/22 10:02:10;;;;;;;4.53;1.77;;;18.80;99.90;;;;;;5101498;28;20666;-66
2022/10/22 10:04:50;;;;;;;2.72;1.25;;;18.80;99.90;;;;;;5099877;28;20181;-66
2022/10/22 10:07:19;;;;;;;5.97;1.92;;;19.00;99.90;;;;;;5104526;28;20517;-68
2022/10/22 10:09:45;;;;;;;2.05;1.50;;;19.30;99.90;;;;;;5096736;28;20188;-68
2022/10/22 10:12:57;;;;;;;2.17;1.33;;;19.60;99.90;;;;;;5094860;28;20228;-68
2022/10/22 10:15:55;;;;;;;2.05;0.75;;;19.60;99.90;;;;;;5100211;27;20924;-67
2022/10/22 10:18:38;;;;;;;4.85;1.27;;;19.60;99.90;;;;;;5111034;28;20207;-67
2022/10/22 10:21:31;;;;;;;3.90;2.13;;;19.70;99.90;;;;;;5102885;28;20183;-65
2022/10/22 10:24:09;;;;;;;8.80;1.50;;;20.00;99.90;;;;;;5096326;28;20663;-65
2022/10/22 10:26:58;;;;;;;3.10;1.80;;;20.10;99.90;;;;;;5095221;28;21034;-66
2022/10/22 10:29:53;;;;;;;2.47;1.27;;;20.00;99.90;;;;;;5100251;28;20181;-65
2022/10/22 10:33:01;;;;;;;5.03;1.50;;;19.80;99.90;;;;;;5111659;27;20172;-67
2022/10/22 10:35:38;;;;;;;4.40;1.35;;;19.90;99.90;;;;;;5097289;28;20192;-67
2022/10/22 10:38:36;;;;;;;3.15;1.60;;;19.90;99.90;;;;;;5099051;28;20642;-65
2022/10/22 10:41:32;;;;;;;2.05;1.00;;;19.80;99.90;;;;;;5095987;28;20184;-66
2022/10/22 10:44:16;;;;;;;4.82;1.83;;;19.80;99.90;;;;;;5101540;28;20189;-65
2022/10/22 10:46:59;;;;;;;3.35;1.45;;;20.00;99.90;;;;;;5104163;28;20191;-66
2022/10/22 10:49:28;;;;;;;2.30;1.33;;;20.20;99.90;;;;;;5109901;28;20191;-65
2022/10/22 10:52:00;;;;;;;3.53;1.38;;;20.50;99.90;;;;;;5105172;28;20187;-65
2022/10/22 10:54:31;;;;;;;2.05;1.45;;;20.40;99.90;;;;;;5095874;28;20226;-66
2022/10/22 10:57:01;;;;;;;4.07;1.30;;;20.30;99.90;;;;;;5111602;27;20216;-66
2022/10/22 11:00:05;;;;;;;5.63;1.27;;;20.20;99.90;;;;;;5105266;28;20203;-65
2022/10/22 11:03:08;;;;;;;3.53;1.30;;;20.40;99.90;;;;;;5102180;28;20188;-65
2022/10/22 11:05:56;;;;;;;5.47;1.77;;;20.10;99.90;;;;;;5105416;27;20190;-66
2022/10/22 11:08:44;;;;;;;5.05;2.65;;;20.10;99.90;;;;;;5096003;28;20206;-65
2022/10/22 11:11:34;;;;;;;7.18;1.67;;;20.30;99.90;;;;;;5104962;28;20195;-66
2022/10/22 11:14:13;;;;;;;1.00;0.90;;;20.20;99.90;;;;;;5097934;27;20187;-67
2022/10/22 11:16:49;;;;;;;7.22;1.30;;;20.20;99.90;;;;;;5099963;28;20184;-66
2022/10/22 11:19:14;;;;;;;7.07;1.40;;;20.10;99.90;;;;;;5099167;28;20179;-66
2022/10/22 11:21:43;;;;;;;3.15;1.45;;;20.20;99.90;;;;;;5108822;28;20190;-65
2022/10/22 11:24:29;;;;;;;2.30;1.15;;;20.40;99.90;;;;;;5106173;28;20188;-65
2022/10/22 11:27:05;;;;;;;1.55;1.30;;;20.50;99.90;;;;;;5110722;27;20187;-66
2022/10/22 11:29:39;;;;;;;1.17;1.08;;;20.30;99.90;;;;;;5100885;28;20180;-65
2022/10/22 11:32:13;;;;;;;2.15;0.93;;;20.10;99.90;;;;;;5092958;28;20579;-66
2022/10/22 11:34:53;;;;;;;3.63;0.88;;;20.00;99.90;;;;;;5098510;28;20176;-66
2022/10/22 11:37:21;;;;;;;3.92;1.05;;;20.20;99.90;;;;;;5094522;28;20239;-66
2022/10/22 11:40:20;;;;;;;3.25;1.15;;;20.30;99.90;;;;;;5096599;28;20246;-64
2022/10/22 11:43:04;;;;;;;7.47;2.53;;;20.60;99.90;;;;;;5106027;28;20180;-67
2022/10/22 11:45:35;;;;;;;1.40;1.25;;;20.70;99.90;;;;;;5125895;27;20279;-65
2022/10/22 11:48:09;;;;;;;2.80;1.13;;;20.60;99.90;;;;;;5099881;28;20207;-65
2022/10/22 11:50:43;;;;;;;1.48;0.75;;;20.80;99.90;;;;;;5100613;28;20181;-67
2022/10/22 11:53:12;;;;;;;2.63;1.38;;;21.00;99.90;;;;;;5108388;27;20229;-66
2022/10/22 11:55:54;;;;;;;0.63;0.57;;;21.10;99.90;;;;;;5108840;28;20530;-66
2022/10/22 11:58:45;;;;;;;4.20;1.08;;;21.10;99.90;;;;;;5098868;28;20212;-67
2022/10/22 12:01:10;;;;;;;1.50;1.00;;;20.90;99.90;;;;;;5100042;28;20273;-67
2022/10/22 12:03:42;;;;;;;2.33;0.85;;;20.80;99.90;;;;;;5094260;28;20296;-66
2022/10/22 12:06:11;;;;;;;3.03;1.42;;;20.70;99.90;;;;;;5094496;28;20301;-67
2022/10/22 12:08:53;;;;;;;3.40;1.67;;;20.70;99.90;;;;;;5096015;28;20183;-66
2022/10/22 12:11:24;;;;;;;4.82;1.00;;;20.80;99.90;;;;;;5113274;28;20593;-66
2022/10/22 12:14:23;;;;;;;2.85;0.98;;;20.90;99.90;;;;;;5093731;28;20176;-68
2022/10/22 12:17:11;;;;;;;2.42;0.75;;;21.00;99.90;;;;;;5088871;28;20715;-67
2022/10/22 12:19:36;;;;;;;1.13;0.98;;;20.90;99.90;;;;;;5103237;28;20629;-70
2022/10/22 12:22:15;;;;;;;3.13;1.15;;;21.00;99.90;;;;;;5101006;28;20188;-69
2022/10/22 12:24:48;;;;;;;3.78;1.80;;;21.10;99.90;;;;;;5104883;28;20662;-66
2022/10/22 12:27:25;;;;;;;1.58;1.05;;;21.20;99.90;;;;;;5108202;28;20187;-67
2022/10/22 12:29:58;;;;;;;1.13;0.88;;;21.30;99.90;;;;;;5093968;28;20181;-67
2022/10/22 12:32:40;;;;;;;1.73;1.15;;;21.10;99.90;;;;;;5092653;28;20181;-67
2022/10/22 12:35:10;;;;;;;4.38;1.05;;;21.00;99.90;;;;;;5097701;28;20269;-67
2022/10/22 12:37:37;;;;;;;6.05;1.40;;;21.10;99.90;;;;;;5097469;28;20205;-66
2022/10/22 12:40:19;;;;;;;0.95;0.70;;;21.10;99.90;;;;;;5093661;28;20176;-67
2022/10/22 12:42:54;;;;;;;3.33;1.50;;;21.00;99.90;;;;;;5102506;28;20176;-66
2022/10/22 12:45:25;;;;;;;0.73;0.73;;;21.00;99.90;;;;;;5112588;28;20251;-66
2022/10/22 12:48:22;;;;;;;1.35;0.98;;;21.20;99.90;;;;;;5100900;28;20190;-66
2022/10/22 12:50:54;;;;;;;2.72;1.00;;;21.10;99.90;;;;;;5092614;28;20672;-68
2022/10/22 12:53:26;;;;;;;1.55;0.95;;;21.20;99.90;;;;;;5103811;28;20579;-67
2022/10/22 12:55:53;;;;;;;2.72;1.48;;;21.10;99.90;;;;;;5096044;28;20528;-66
2022/10/22 12:58:24;;;;;;;2.35;1.67;;;21.10;99.90;;;;;;5099031;28;20208;-68
2022/10/22 13:00:56;;;;;;;3.97;1.08;;;21.00;99.90;;;;;;5106164;28;20180;-65
2022/10/22 13:03:49;;;;;;;2.28;0.80;;;21.20;99.90;;;;;;5093838;28;20176;-66
2022/10/22 13:06:18;;;;;;;1.95;0.80;;;21.40;99.90;;;;;;5096001;28;20212;-66
2022/10/22 13:08:54;;;;;;;3.15;0.80;;;21.40;99.90;;;;;;5093062;28;20181;-66